createdAt,value
2023-03-13T00:01:09.774Z,9.80
2023-03-13T00:03:38.908Z,9.32
2023-03-13T00:06:07.212Z,9.05
2023-03-13T00:08:34.891Z,9.13
2023-03-13T00:11:03.408Z,9.11
2023-03-13T00:13:31.418Z,9.01
2023-03-13T00:16:03.338Z,9.75
2023-03-13T00:18:31.017Z,9.59
2023-03-13T00:21:01.618Z,9.55
2023-03-13T00:23:29.803Z,9.43
2023-03-13T00:25:58.582Z,9.30
2023-03-13T00:28:32.865Z,9.43
2023-03-13T00:31:01.968Z,9.42
2023-03-13T00:33:29.613Z,9.44
2023-03-13T00:36:04.666Z,9.50
2023-03-13T00:38:33.301Z,9.63
2023-03-13T00:41:02.389Z,9.85
2023-03-13T00:43:31.727Z,10.00
2023-03-13T00:45:59.594Z,9.98
2023-03-13T00:48:29.710Z,10.17
2023-03-13T00:50:57.371Z,10.09
2023-03-13T00:53:26.455Z,10.31
2023-03-13T00:55:56.474Z,10.51
2023-03-13T00:58:25.942Z,10.74
2023-03-13T01:00:54.899Z,11.44
2023-03-13T01:03:24.855Z,11.07
2023-03-13T01:05:57.070Z,10.66
2023-03-13T01:08:27.474Z,10.93
2023-03-13T01:11:02.351Z,11.24
2023-03-13T01:13:31.641Z,11.74
2023-03-13T01:16:03.211Z,11.76
2023-03-13T01:18:31.255Z,10.89
2023-03-13T01:20:58.871Z,10.04
2023-03-13T01:23:28.670Z,9.33
2023-03-13T01:25:58.754Z,9.90
2023-03-13T01:28:27.451Z,10.14
2023-03-13T01:30:55.228Z,10.22
2023-03-13T01:33:23.086Z,10.09
2023-03-13T01:35:52.089Z,10.03
2023-03-13T01:38:20.040Z,10.84
2023-03-13T01:40:49.429Z,10.75
2023-03-13T01:43:26.371Z,11.04
2023-03-13T01:45:59.922Z,11.31
2023-03-13T01:48:37.805Z,10.50
2023-03-13T01:51:10.575Z,10.84
2023-03-13T01:53:44.352Z,11.25
2023-03-13T01:56:20.398Z,11.66
2023-03-13T01:58:52.509Z,11.19
2023-03-13T02:01:20.684Z,11.86
2023-03-13T02:03:50.228Z,11.54
2023-03-13T02:06:19.596Z,11.74
2023-03-13T02:08:53.344Z,11.29
2023-03-13T02:11:30.248Z,10.80
2023-03-13T02:14:00.223Z,11.37
2023-03-13T02:16:28.657Z,10.87
2023-03-13T02:18:56.280Z,9.89
2023-03-13T02:21:38.827Z,10.12
2023-03-13T02:24:17.824Z,9.06
2023-03-13T02:26:47.265Z,8.97
2023-03-13T02:29:16.225Z,8.95
2023-03-13T02:31:45.955Z,8.86
2023-03-13T02:34:21.745Z,8.75
2023-03-13T02:36:50.256Z,8.68
2023-03-13T02:39:23.493Z,8.69
2023-03-13T02:41:53.878Z,8.73
2023-03-13T02:44:21.597Z,8.79
2023-03-13T02:46:51.828Z,8.83
2023-03-13T02:49:23.553Z,8.91
2023-03-13T02:51:54.137Z,9.15
2023-03-13T02:54:26.254Z,9.78
2023-03-13T02:57:02.847Z,10.52
2023-03-13T02:59:31.250Z,10.89
2023-03-13T03:01:59.348Z,11.21
2023-03-13T03:04:27.397Z,10.97
2023-03-13T03:06:56.946Z,10.67
2023-03-13T03:09:25.419Z,11.14
2023-03-13T03:11:53.031Z,11.73
2023-03-13T03:14:22.134Z,11.23
2023-03-13T03:16:49.855Z,10.93
2023-03-13T03:19:17.761Z,10.52
2023-03-13T03:21:45.393Z,10.49
2023-03-13T03:24:13.235Z,10.46
2023-03-13T03:26:41.557Z,10.66
2023-03-13T03:29:09.253Z,10.78
2023-03-13T03:31:38.271Z,10.85
2023-03-13T03:34:06.020Z,10.95
2023-03-13T03:36:33.629Z,10.97
2023-03-13T03:39:01.335Z,11.05
2023-03-13T03:41:28.926Z,11.16
2023-03-13T03:43:57.808Z,11.68
2023-03-13T03:46:25.593Z,11.63
2023-03-13T03:48:54.524Z,11.60
2023-03-13T03:51:22.870Z,11.59
2023-03-13T03:53:52.793Z,11.52
2023-03-13T03:56:22.094Z,11.36
2023-03-13T03:58:49.979Z,12.16
2023-03-13T04:01:17.668Z,12.56
2023-03-13T04:03:45.732Z,12.39
2023-03-13T04:06:18.633Z,12.35
2023-03-13T04:08:46.574Z,12.86
2023-03-13T04:11:15.301Z,12.93
2023-03-13T04:13:42.922Z,13.10
2023-03-13T04:16:11.063Z,13.29
2023-03-13T04:18:39.331Z,12.80
2023-03-13T04:21:08.502Z,12.79
2023-03-13T04:23:37.454Z,13.12
2023-03-13T04:26:05.368Z,12.95
2023-03-13T04:28:32.982Z,12.52
2023-03-13T04:31:00.696Z,12.37
2023-03-13T04:33:28.503Z,12.98
2023-03-13T04:35:56.131Z,12.61
2023-03-13T04:38:24.362Z,12.66
2023-03-13T04:40:53.477Z,12.87
2023-03-13T04:43:21.137Z,12.96
2023-03-13T04:45:49.888Z,12.37
2023-03-13T04:48:17.528Z,12.47
2023-03-13T04:50:45.185Z,13.00
2023-03-13T04:53:13.073Z,11.93
2023-03-13T04:55:41.705Z,11.70
2023-03-13T04:58:10.698Z,11.26
2023-03-13T05:00:40.269Z,11.02
2023-03-13T05:03:07.933Z,11.19
2023-03-13T05:05:35.975Z,11.74
2023-03-13T05:08:03.825Z,10.89
2023-03-13T05:10:31.718Z,10.99
2023-03-13T05:12:59.391Z,11.14
2023-03-13T05:15:28.455Z,11.31
2023-03-13T05:17:56.137Z,11.15
2023-03-13T05:20:23.727Z,11.78
2023-03-13T05:22:51.382Z,12.54
2023-03-13T05:25:19.327Z,12.61
2023-03-13T05:27:46.968Z,12.32
2023-03-13T05:30:14.810Z,12.85
2023-03-13T05:32:44.106Z,12.53
2023-03-13T05:35:11.811Z,12.62
2023-03-13T05:37:41.331Z,12.56
2023-03-13T05:40:10.267Z,12.36
2023-03-13T05:42:37.834Z,10.58
2023-03-13T05:45:06.915Z,10.14
2023-03-13T05:47:34.706Z,10.12
2023-03-13T05:50:04.521Z,10.24
2023-03-13T05:52:32.246Z,10.18
2023-03-13T05:54:59.910Z,10.41
2023-03-13T05:57:27.600Z,10.88
2023-03-13T05:59:55.609Z,10.87
2023-03-13T06:02:23.497Z,10.97
2023-03-13T06:04:51.511Z,10.93
2023-03-13T06:07:20.604Z,11.23
2023-03-13T06:09:48.107Z,11.02
2023-03-13T06:12:15.762Z,11.59
2023-03-13T06:14:43.433Z,12.53
2023-03-13T06:17:11.319Z,12.15
2023-03-13T06:19:39.016Z,12.01
2023-03-13T06:22:06.639Z,11.79
2023-03-13T06:24:36.411Z,12.31
2023-03-13T06:27:04.082Z,12.09
2023-03-13T06:29:33.292Z,12.07
2023-03-13T06:32:01.257Z,12.14
2023-03-13T06:34:29.521Z,12.86
2023-03-13T06:36:58.551Z,13.34
2023-03-13T06:39:26.209Z,13.78
2023-03-13T06:41:55.670Z,12.97
2023-03-13T06:44:23.454Z,12.66
2023-03-13T06:46:51.352Z,12.23
2023-03-13T06:49:19.298Z,12.34
2023-03-13T06:51:49.864Z,11.97
2023-03-13T06:54:17.499Z,11.87
2023-03-13T06:56:47.472Z,11.68
2023-03-13T06:59:16.452Z,12.11
2023-03-13T07:01:44.560Z,12.18
2023-03-13T07:04:15.066Z,12.20
2023-03-13T07:06:42.951Z,12.10
2023-03-13T07:09:11.078Z,12.17
2023-03-13T07:11:38.762Z,13.16
2023-03-13T07:14:16.578Z,13.31
2023-03-13T07:16:49.432Z,12.57
2023-03-13T07:19:17.865Z,12.38
2023-03-13T07:21:49.862Z,12.49
2023-03-13T07:24:17.459Z,12.06
2023-03-13T07:27:03.894Z,12.08
2023-03-13T07:29:35.325Z,12.48
2023-03-13T07:32:05.424Z,12.06
2023-03-13T07:34:35.096Z,12.15
2023-03-13T07:37:05.224Z,12.13
2023-03-13T07:39:33.966Z,12.14
2023-03-13T07:42:01.581Z,12.00
2023-03-13T07:44:29.182Z,11.55
2023-03-13T07:47:00.571Z,10.34
2023-03-13T07:49:29.662Z,9.54
2023-03-13T07:51:57.958Z,10.44
2023-03-13T07:54:25.586Z,10.12
2023-03-13T07:56:53.189Z,9.77
2023-03-13T07:59:21.104Z,9.47
2023-03-13T08:01:49.018Z,10.33
2023-03-13T08:04:16.683Z,9.82
2023-03-13T08:06:45.803Z,10.06
2023-03-13T08:09:13.578Z,10.02
2023-03-13T08:11:41.220Z,10.34
2023-03-13T08:14:08.915Z,10.50
2023-03-13T08:16:37.063Z,10.53
2023-03-13T08:19:05.515Z,10.63
2023-03-13T08:21:37.177Z,10.81
2023-03-13T08:24:10.732Z,11.55
2023-03-13T08:26:40.756Z,11.30
2023-03-13T08:29:10.872Z,12.01
2023-03-13T08:31:43.549Z,11.48
2023-03-13T08:34:12.229Z,12.70
2023-03-13T08:36:40.503Z,12.37
2023-03-13T08:39:12.759Z,12.54
2023-03-13T08:41:41.256Z,13.07
2023-03-13T08:44:13.074Z,13.78
2023-03-13T08:46:41.605Z,14.02
2023-03-13T08:49:10.003Z,13.05
2023-03-13T08:51:39.418Z,15.29
2023-03-13T08:54:09.166Z,12.76
2023-03-13T08:56:36.902Z,11.81
2023-03-13T08:59:05.909Z,12.72
2023-03-13T09:01:36.469Z,13.03
2023-03-13T09:04:05.416Z,13.68
2023-03-13T09:06:33.850Z,13.31
2023-03-13T09:09:02.540Z,13.31
2023-03-13T09:11:31.734Z,14.59
2023-03-13T09:14:01.840Z,13.72
2023-03-13T09:16:33.312Z,12.96
2023-03-13T09:19:01.894Z,13.29
2023-03-13T09:21:31.804Z,13.80
2023-03-13T09:24:00.659Z,13.77
2023-03-13T09:26:29.144Z,14.88
2023-03-13T09:28:58.643Z,15.06
2023-03-13T09:31:28.819Z,15.13
2023-03-13T09:34:00.200Z,13.56
2023-03-13T09:36:28.584Z,13.08
2023-03-13T09:38:58.105Z,13.46
2023-03-13T09:41:33.294Z,13.69
2023-03-13T09:44:11.602Z,14.96
2023-03-13T09:46:46.815Z,15.13
2023-03-13T09:49:28.733Z,15.32
2023-03-13T09:52:20.916Z,12.31
2023-03-13T09:54:54.739Z,11.91
2023-03-13T09:57:31.056Z,13.40
2023-03-13T10:00:07.024Z,12.56
2023-03-13T10:02:36.533Z,12.19
2023-03-13T10:05:15.913Z,13.21
2023-03-13T10:07:47.482Z,16.27
2023-03-13T10:10:20.561Z,15.54
2023-03-13T10:12:52.874Z,15.76
2023-03-13T10:15:34.256Z,14.54
2023-03-13T10:18:16.541Z,14.03
2023-03-13T10:20:47.173Z,15.58
2023-03-13T10:23:25.725Z,15.60
2023-03-13T10:25:54.394Z,13.78
2023-03-13T10:28:22.005Z,13.88
2023-03-13T10:30:57.725Z,14.97
2023-03-13T10:33:27.667Z,17.10
2023-03-13T10:36:15.917Z,19.23
2023-03-13T10:38:49.987Z,17.04
2023-03-13T10:41:29.109Z,17.91
2023-03-13T10:44:03.372Z,16.97
2023-03-13T10:46:35.200Z,17.62
2023-03-13T10:49:13.159Z,17.74
2023-03-13T10:51:47.406Z,17.75
2023-03-13T10:54:21.663Z,17.77
2023-03-13T10:56:49.945Z,18.01
2023-03-13T10:59:24.749Z,16.11
2023-03-13T11:02:00.836Z,15.59
2023-03-13T11:04:34.204Z,15.92
2023-03-13T11:07:05.211Z,16.73
2023-03-13T11:09:32.876Z,16.62
2023-03-13T11:12:06.900Z,15.44
2023-03-13T11:14:34.747Z,16.05
2023-03-13T11:17:18.230Z,17.20
2023-03-13T11:20:03.975Z,15.94
2023-03-13T11:22:46.648Z,15.73
2023-03-13T11:25:21.155Z,17.89
2023-03-13T11:28:03.990Z,19.67
2023-03-13T11:30:49.448Z,19.03
2023-03-13T11:33:29.189Z,17.27
2023-03-13T11:36:02.711Z,17.06
2023-03-13T11:38:39.687Z,19.03
2023-03-13T11:41:30.046Z,17.42
2023-03-13T11:44:26.820Z,18.88
2023-03-13T11:47:10.286Z,18.38
2023-03-13T11:50:03.106Z,17.95
2023-03-13T11:52:42.861Z,19.87
2023-03-13T11:55:29.551Z,20.90
2023-03-13T11:58:17.048Z,19.54
2023-03-13T12:00:53.394Z,19.35
2023-03-13T12:03:34.454Z,20.13
2023-03-13T12:06:27.606Z,19.22
2023-03-13T12:09:05.133Z,18.37
2023-03-13T12:11:38.116Z,19.20
2023-03-13T12:14:13.590Z,16.90
2023-03-13T12:16:46.733Z,18.15
2023-03-13T12:19:22.432Z,18.79
2023-03-13T12:21:54.558Z,19.44
2023-03-13T12:24:30.918Z,19.86
2023-03-13T12:27:05.647Z,19.62
2023-03-13T12:29:48.864Z,20.35
2023-03-13T12:32:26.682Z,19.33
2023-03-13T12:35:06.985Z,18.32
2023-03-13T12:37:45.139Z,17.57
2023-03-13T12:40:23.141Z,17.61
2023-03-13T12:42:57.047Z,18.61
2023-03-13T12:45:26.396Z,20.34
2023-03-13T12:48:20.716Z,21.49
2023-03-13T12:51:09.903Z,21.69
2023-03-13T12:54:05.653Z,18.44
2023-03-13T12:56:55.719Z,17.85
2023-03-13T12:59:34.839Z,19.35
2023-03-13T13:02:14.461Z,18.46
2023-03-13T13:04:46.845Z,19.23
2023-03-13T13:07:26.087Z,19.19
2023-03-13T13:10:16.549Z,17.32
2023-03-13T13:12:46.151Z,17.27
2023-03-13T13:15:21.713Z,19.15
2023-03-13T13:18:05.043Z,20.98
2023-03-13T13:20:37.490Z,17.52
2023-03-13T13:23:26.529Z,14.77
2023-03-13T13:26:16.501Z,13.63
2023-03-13T13:28:48.177Z,13.99
2023-03-13T13:31:59.532Z,14.99
2023-03-13T13:34:56.255Z,16.25
2023-03-13T13:37:27.403Z,17.07
2023-03-13T13:40:17.269Z,16.73
2023-03-13T13:42:52.585Z,16.08
2023-03-13T13:45:31.523Z,16.83
2023-03-13T13:48:30.039Z,16.38
2023-03-13T13:51:20.454Z,16.78
2023-03-13T13:53:59.013Z,15.58
2023-03-13T13:56:34.636Z,13.91
2023-03-13T13:59:22.849Z,13.62
2023-03-13T14:02:18.442Z,13.48
2023-03-13T14:04:49.808Z,13.29
2023-03-13T14:07:24.112Z,12.92
2023-03-13T14:10:01.851Z,14.19
2023-03-13T14:12:32.061Z,14.44
2023-03-13T14:15:17.921Z,14.18
2023-03-13T14:17:48.998Z,15.74
2023-03-13T14:20:26.454Z,15.87
2023-03-13T14:22:55.896Z,14.55
2023-03-13T14:25:25.454Z,15.34
2023-03-13T14:27:55.283Z,15.56
2023-03-13T14:30:24.549Z,16.61
2023-03-13T14:32:52.584Z,15.79
2023-03-13T14:35:21.082Z,16.84
2023-03-13T14:37:50.849Z,16.29
2023-03-13T14:40:25.120Z,17.32
2023-03-13T14:42:55.224Z,17.99
2023-03-13T14:45:30.007Z,18.51
2023-03-13T14:48:03.312Z,16.27
2023-03-13T14:50:31.864Z,16.90
2023-03-13T14:53:04.402Z,15.72
2023-03-13T14:55:34.763Z,13.80
2023-03-13T14:58:05.994Z,13.41
2023-03-13T15:00:40.676Z,14.08
2023-03-13T15:03:26.220Z,14.01
2023-03-13T15:06:15.286Z,14.66
2023-03-13T15:08:47.753Z,14.92
2023-03-13T15:11:26.922Z,15.52
2023-03-13T15:13:55.955Z,15.59
2023-03-13T15:16:27.234Z,17.23
2023-03-13T15:18:55.675Z,15.50
2023-03-13T15:21:27.099Z,15.13
2023-03-13T15:24:00.357Z,14.95
2023-03-13T15:26:29.354Z,14.84
2023-03-13T15:28:56.978Z,15.10
2023-03-13T15:31:29.850Z,14.83
2023-03-13T15:34:00.837Z,14.69
2023-03-13T15:36:30.282Z,14.78
2023-03-13T15:38:58.089Z,15.37
2023-03-13T15:41:27.360Z,14.99
2023-03-13T15:43:54.952Z,15.11
2023-03-13T15:46:27.690Z,15.32
2023-03-13T15:48:55.273Z,16.40
2023-03-13T15:51:22.972Z,15.81
2023-03-13T15:53:50.640Z,16.12
2023-03-13T15:56:20.078Z,15.59
2023-03-13T15:58:48.840Z,15.87
2023-03-13T16:01:18.131Z,16.48
2023-03-13T16:03:47.185Z,17.05
2023-03-13T16:06:18.084Z,17.02
2023-03-13T16:08:46.786Z,16.55
2023-03-13T16:11:16.734Z,16.62
2023-03-13T16:13:47.679Z,16.83
2023-03-13T16:16:20.018Z,17.16
2023-03-13T16:18:52.789Z,17.76
2023-03-13T16:21:23.631Z,18.33
2023-03-13T16:23:51.983Z,19.60
2023-03-13T16:26:22.499Z,20.15
2023-03-13T16:28:53.714Z,20.48
2023-03-13T16:31:24.316Z,19.96
2023-03-13T16:33:55.138Z,16.70
2023-03-13T16:36:27.341Z,14.99
2023-03-13T16:38:55.727Z,14.29
2023-03-13T16:41:26.256Z,14.66
2023-03-13T16:43:55.207Z,15.33
2023-03-13T16:46:24.766Z,14.77
2023-03-13T16:48:53.708Z,15.18
2023-03-13T16:51:23.482Z,15.53
2023-03-13T16:53:52.854Z,15.59
2023-03-13T16:56:26.645Z,16.71
2023-03-13T16:58:54.694Z,16.95
2023-03-13T17:01:23.056Z,17.00
2023-03-13T17:03:50.722Z,17.28
2023-03-13T17:06:22.904Z,17.37
2023-03-13T17:08:50.545Z,17.07
2023-03-13T17:11:20.239Z,17.42
2023-03-13T17:13:50.142Z,17.92
2023-03-13T17:16:20.718Z,17.65
2023-03-13T17:18:51.237Z,17.85
2023-03-13T17:21:22.805Z,17.03
2023-03-13T17:23:50.705Z,16.65
2023-03-13T17:26:21.238Z,16.61
2023-03-13T17:28:50.957Z,16.54
2023-03-13T17:31:20.951Z,16.47
2023-03-13T17:33:50.016Z,16.33
2023-03-13T17:36:22.182Z,16.27
2023-03-13T17:38:51.980Z,15.99
2023-03-13T17:41:21.613Z,16.01
2023-03-13T17:43:49.524Z,15.92
2023-03-13T17:46:20.381Z,15.82
2023-03-13T17:48:49.601Z,15.70
2023-03-13T17:51:21.596Z,15.73
2023-03-13T17:53:50.335Z,15.73
2023-03-13T17:56:22.143Z,15.62
2023-03-13T17:58:52.003Z,15.70
2023-03-13T18:01:21.914Z,15.80
2023-03-13T18:03:52.032Z,15.83
2023-03-13T18:06:25.198Z,15.93
2023-03-13T18:08:54.958Z,15.96
2023-03-13T18:11:25.795Z,16.09
2023-03-13T18:13:53.909Z,16.11
2023-03-13T18:16:26.097Z,15.36
2023-03-13T18:18:54.559Z,14.98
2023-03-13T18:21:24.324Z,15.20
2023-03-13T18:23:51.890Z,14.60
2023-03-13T18:26:22.674Z,14.93
2023-03-13T18:28:50.712Z,14.99
2023-03-13T18:31:18.689Z,14.79
2023-03-13T18:33:47.746Z,15.24
2023-03-13T18:36:18.778Z,15.36
2023-03-13T18:38:48.233Z,15.57
2023-03-13T18:41:17.204Z,15.53
2023-03-13T18:43:47.241Z,15.36
2023-03-13T18:46:20.636Z,15.37
2023-03-13T18:48:48.932Z,15.39
2023-03-13T18:51:17.621Z,15.38
2023-03-13T18:53:47.761Z,15.25
2023-03-13T18:56:19.275Z,15.46
2023-03-13T18:58:50.468Z,15.55
2023-03-13T19:01:21.543Z,15.48
2023-03-13T19:03:49.679Z,15.46
2023-03-13T19:06:21.471Z,15.47
2023-03-13T19:08:53.508Z,15.49
2023-03-13T19:11:24.078Z,15.52
2023-03-13T19:13:51.718Z,15.41
2023-03-13T19:16:23.391Z,15.17
2023-03-13T19:18:51.379Z,15.22
2023-03-13T19:21:22.110Z,15.38
2023-03-13T19:23:52.382Z,15.35
2023-03-13T19:26:29.486Z,15.39
2023-03-13T19:28:57.805Z,15.58
2023-03-13T19:31:26.211Z,15.61
2023-03-13T19:33:55.225Z,15.59
2023-03-13T19:36:24.212Z,15.76
2023-03-13T19:38:53.163Z,15.70
2023-03-13T19:41:21.764Z,15.74
2023-03-13T19:43:49.365Z,15.65
2023-03-13T19:46:24.444Z,15.65
2023-03-13T19:48:54.583Z,15.47
2023-03-13T19:51:23.228Z,15.56
2023-03-13T19:53:51.129Z,15.61
2023-03-13T19:56:24.986Z,15.59
2023-03-13T19:58:57.949Z,15.73
2023-03-13T20:01:25.868Z,15.44
2023-03-13T20:03:54.758Z,15.32
2023-03-13T20:06:25.151Z,15.42
2023-03-13T20:08:55.107Z,15.38
2023-03-13T20:11:25.304Z,15.34
2023-03-13T20:13:53.297Z,15.16
2023-03-13T20:16:22.412Z,15.16
2023-03-13T20:18:51.656Z,14.93
2023-03-13T20:21:19.254Z,15.06
2023-03-13T20:23:49.376Z,14.89
2023-03-13T20:26:19.616Z,14.63
2023-03-13T20:28:50.723Z,14.45
2023-03-13T20:31:20.815Z,13.89
2023-03-13T20:33:48.788Z,13.21
2023-03-13T20:36:18.998Z,12.70
2023-03-13T20:38:47.991Z,13.05
2023-03-13T20:41:15.817Z,12.48
2023-03-13T20:43:43.687Z,12.09
2023-03-13T20:46:12.803Z,11.58
2023-03-13T20:48:40.608Z,11.56
2023-03-13T20:51:09.430Z,11.45
2023-03-13T20:53:38.472Z,11.19
2023-03-13T20:56:08.711Z,11.00
2023-03-13T20:58:36.995Z,11.01
2023-03-13T21:01:06.705Z,10.97
2023-03-13T21:03:36.430Z,10.91
2023-03-13T21:06:09.373Z,10.84
2023-03-13T21:08:38.814Z,10.61
2023-03-13T21:11:12.132Z,10.62
2023-03-13T21:13:39.765Z,10.63
2023-03-13T21:16:08.030Z,10.57
2023-03-13T21:18:37.149Z,10.66
2023-03-13T21:21:07.576Z,10.81
2023-03-13T21:23:36.792Z,11.38
2023-03-13T21:26:06.242Z,11.44
2023-03-13T21:28:33.978Z,11.51
2023-03-13T21:31:08.927Z,11.56
2023-03-13T21:33:38.292Z,11.56
2023-03-13T21:36:06.860Z,11.56
2023-03-13T21:38:39.260Z,11.52
2023-03-13T21:41:08.658Z,11.49
2023-03-13T21:43:40.666Z,11.59
2023-03-13T21:46:08.626Z,11.47
2023-03-13T21:48:39.400Z,11.63
2023-03-13T21:51:08.455Z,11.75
2023-03-13T21:53:36.529Z,11.49
2023-03-13T21:56:05.176Z,11.23
2023-03-13T21:58:32.696Z,10.91
2023-03-13T22:01:00.427Z,10.72
2023-03-13T22:03:28.050Z,10.78
2023-03-13T22:05:57.324Z,10.90
2023-03-13T22:08:24.980Z,10.97
2023-03-13T22:10:52.728Z,10.72
2023-03-13T22:13:21.102Z,10.55
2023-03-13T22:15:48.734Z,10.39
2023-03-13T22:18:17.352Z,10.38
2023-03-13T22:20:47.263Z,10.32
2023-03-13T22:23:16.342Z,10.35
2023-03-13T22:25:44.221Z,10.09
2023-03-13T22:28:12.200Z,9.81
2023-03-13T22:30:40.018Z,10.11
2023-03-13T22:33:08.011Z,10.03
2023-03-13T22:35:37.690Z,10.21
2023-03-13T22:38:05.750Z,10.25
2023-03-13T22:40:34.677Z,10.33
2023-03-13T22:43:02.293Z,10.54
2023-03-13T22:45:29.923Z,10.25
2023-03-13T22:47:57.547Z,9.87
2023-03-13T22:50:25.127Z,10.38
2023-03-13T22:52:52.839Z,10.30
2023-03-13T22:55:20.580Z,10.01
2023-03-13T22:57:49.618Z,9.97
2023-03-13T23:00:19.850Z,10.02
2023-03-13T23:02:47.494Z,10.04
2023-03-13T23:05:15.434Z,9.73
2023-03-13T23:07:43.216Z,9.72
2023-03-13T23:10:11.817Z,9.89
2023-03-13T23:12:39.744Z,9.75
2023-03-13T23:15:10.752Z,9.88
2023-03-13T23:17:38.395Z,9.71
2023-03-13T23:20:07.347Z,9.79
2023-03-13T23:22:35.106Z,9.76
2023-03-13T23:25:02.732Z,9.72
2023-03-13T23:27:30.484Z,9.25
2023-03-13T23:29:58.025Z,9.47
2023-03-13T23:32:27.842Z,9.15
2023-03-13T23:34:55.752Z,9.34
2023-03-13T23:37:23.397Z,9.53
2023-03-13T23:39:51.079Z,9.65
2023-03-13T23:42:18.832Z,9.66
2023-03-13T23:44:46.524Z,9.55
2023-03-13T23:47:18.579Z,9.63
2023-03-13T23:49:52.100Z,8.91
2023-03-13T23:52:21.451Z,9.22
2023-03-13T23:54:50.581Z,9.36
2023-03-13T23:57:18.962Z,9.50
2023-03-13T23:59:46.887Z,9.06
